Terminal Aerodrome Forecast
Issued by NWS

Home | Current Version | Previous Version | Graphics & Text | Print | Product List | Glossary On
Versions: 1 2 3 4 5 6 7 8 9 10 11 12 13 14 15 16 17 18 19
000
FTUS43 KICT 272331
TAFSLN
TAF
KSLN 272331Z 2800/2824 14010KT P6SM SCT050 SCT120
     FM280400 15012KT P6SM VCTS SCT035CB BKN100
      TEMPO 2805/2808 -TSRA
     FM281100 15010KT P6SM VCTS BKN025CB
     FM281500 18015G22KT P6SM BKN050=

USA.gov is the U.S. government's official web portal to all federal, state and local government web resources and services.